createdAt,value
2022-11-28T00:01:47.257Z,11.80
2022-11-28T00:04:18.218Z,12.00
2022-11-28T00:06:50.564Z,12.00
2022-11-28T00:09:21.926Z,12.00
2022-11-28T00:11:52.808Z,11.90
2022-11-28T00:14:23.747Z,12.00
2022-11-28T00:16:54.623Z,12.10
2022-11-28T00:19:25.482Z,11.90
2022-11-28T00:21:56.477Z,12.40
2022-11-28T00:24:27.479Z,12.40
2022-11-28T00:26:58.365Z,12.20
2022-11-28T00:29:29.232Z,12.50
2022-11-28T00:32:00.271Z,12.40
2022-11-28T00:34:31.210Z,12.10
2022-11-28T00:37:02.084Z,12.10
2022-11-28T00:39:32.928Z,12.10
2022-11-28T00:42:03.902Z,12.00
2022-11-28T00:44:34.765Z,11.80
2022-11-28T00:47:05.725Z,11.90
2022-11-28T00:49:36.714Z,11.90
2022-11-28T00:52:07.845Z,11.90
2022-11-28T00:54:41.752Z,12.00
2022-11-28T00:57:12.866Z,11.90
2022-11-28T00:59:43.722Z,11.90
2022-11-28T01:02:14.732Z,12.00
2022-11-28T01:04:45.623Z,11.90
2022-11-28T01:07:16.572Z,12.00
2022-11-28T01:09:47.523Z,11.90
2022-11-28T01:12:18.391Z,11.90
2022-11-28T01:14:49.312Z,11.90
2022-11-28T01:17:20.220Z,11.90
2022-11-28T01:19:51.112Z,11.90
2022-11-28T01:22:21.973Z,11.80
2022-11-28T01:24:52.889Z,12.00
2022-11-28T01:27:23.804Z,12.00
2022-11-28T01:29:54.641Z,11.90
2022-11-28T01:32:25.553Z,11.90
2022-11-28T01:34:56.478Z,12.00
2022-11-28T01:37:30.122Z,12.00
2022-11-28T01:40:01.024Z,12.00
2022-11-28T01:42:32.055Z,12.00
2022-11-28T01:45:32.278Z,11.90
2022-11-28T01:48:04.091Z,11.80
2022-11-28T01:50:36.276Z,11.80
2022-11-28T01:53:10.552Z,11.80
2022-11-28T01:55:56.328Z,11.80
2022-11-28T01:58:28.690Z,11.60
2022-11-28T02:00:59.660Z,11.80
2022-11-28T02:03:40.509Z,11.60
2022-11-28T02:06:15.429Z,11.80
2022-11-28T02:08:46.343Z,11.80
2022-11-28T02:11:53.507Z,11.80
2022-11-28T02:15:04.365Z,11.90
2022-11-28T02:18:07.236Z,12.00
2022-11-28T02:21:34.498Z,11.90
2022-11-28T02:24:55.250Z,11.90
2022-11-28T02:28:09.511Z,11.90
2022-11-28T02:30:57.499Z,11.90
2022-11-28T02:33:42.586Z,12.00
2022-11-28T02:36:15.487Z,12.10
2022-11-28T02:39:33.739Z,12.00
2022-11-28T02:42:54.572Z,12.00
2022-11-28T02:45:43.451Z,12.20
2022-11-28T02:48:25.810Z,12.10
2022-11-28T02:51:12.147Z,12.10
2022-11-28T02:53:45.946Z,12.00
2022-11-28T02:56:17.134Z,12.30
2022-11-28T02:58:48.003Z,12.50
2022-11-28T03:01:34.090Z,12.10
2022-11-28T03:04:32.559Z,12.30
2022-11-28T03:07:25.140Z,11.80
2022-11-28T03:10:40.930Z,11.70
2022-11-28T03:13:40.844Z,12.10
2022-11-28T03:16:22.704Z,11.90
2022-11-28T03:19:19.940Z,11.90
2022-11-28T03:22:19.567Z,12.00
2022-11-28T03:25:06.531Z,12.10
2022-11-28T03:27:48.294Z,11.90
2022-11-28T03:30:30.786Z,11.80
2022-11-28T03:33:04.053Z,11.90
2022-11-28T03:35:42.708Z,12.20
2022-11-28T03:38:23.451Z,12.00
2022-11-28T03:40:58.928Z,11.60
2022-11-28T03:43:40.852Z,11.80
2022-11-28T03:46:16.406Z,11.90
2022-11-28T03:48:51.387Z,11.60
2022-11-28T03:51:31.829Z,11.70
2022-11-28T03:54:11.325Z,11.80
2022-11-28T03:57:19.681Z,11.80
2022-11-28T03:59:54.182Z,11.80
2022-11-28T04:02:39.955Z,11.70
2022-11-28T04:05:19.745Z,11.70
2022-11-28T04:08:12.094Z,11.80
2022-11-28T04:10:56.286Z,11.90
2022-11-28T04:13:39.873Z,12.00
2022-11-28T04:16:19.534Z,11.60
2022-11-28T04:19:05.835Z,11.70
2022-11-28T04:22:14.615Z,11.60
2022-11-28T04:24:55.454Z,11.70
2022-11-28T04:27:38.068Z,11.80
2022-11-28T04:30:10.775Z,11.70
2022-11-28T04:32:58.907Z,11.50
2022-11-28T04:35:46.948Z,11.60
2022-11-28T04:38:19.431Z,11.70
2022-11-28T04:41:00.877Z,11.60
2022-11-28T04:43:45.020Z,11.70
2022-11-28T04:46:26.944Z,11.60
2022-11-28T04:48:58.897Z,11.80
2022-11-28T04:52:15.361Z,11.60
2022-11-28T04:55:01.101Z,11.60
2022-11-28T04:57:43.214Z,11.40
2022-11-28T05:00:19.075Z,11.50
2022-11-28T05:02:53.506Z,11.50
2022-11-28T05:05:26.453Z,11.60
2022-11-28T05:07:58.902Z,11.60
2022-11-28T05:10:30.648Z,11.70
2022-11-28T05:13:01.881Z,11.70
2022-11-28T05:15:32.874Z,11.80
2022-11-28T05:18:04.053Z,11.80
2022-11-28T05:20:38.718Z,11.70
2022-11-28T05:23:09.591Z,11.70
2022-11-28T05:25:40.478Z,11.80
2022-11-28T05:28:11.334Z,11.90
2022-11-28T05:30:42.187Z,11.80
2022-11-28T05:33:13.042Z,11.60
2022-11-28T05:35:43.881Z,11.30
2022-11-28T05:38:14.752Z,11.50
2022-11-28T05:40:45.713Z,11.30
2022-11-28T05:43:16.595Z,10.60
2022-11-28T05:45:47.499Z,11.20
2022-11-28T05:48:18.556Z,11.60
2022-11-28T05:50:52.545Z,11.50
2022-11-28T05:53:23.411Z,11.50
2022-11-28T05:55:54.288Z,11.60
2022-11-28T05:58:25.212Z,11.70
2022-11-28T06:00:56.101Z,11.70
2022-11-28T06:03:26.997Z,11.50
2022-11-28T06:05:57.850Z,11.60
2022-11-28T06:08:28.713Z,11.90
2022-11-28T06:11:00.326Z,12.20
2022-11-28T06:13:31.300Z,12.30
2022-11-28T06:16:02.956Z,12.00
2022-11-28T06:18:33.887Z,12.00
2022-11-28T06:21:07.250Z,12.20
2022-11-28T06:23:39.381Z,12.20
2022-11-28T06:26:18.119Z,12.30
2022-11-28T06:28:49.316Z,12.20
2022-11-28T06:31:28.250Z,11.80
2022-11-28T06:33:59.815Z,11.90
2022-11-28T06:36:30.980Z,12.30
2022-11-28T06:39:01.909Z,12.10
2022-11-28T06:41:32.809Z,12.10
2022-11-28T06:44:03.840Z,12.20
2022-11-28T06:46:34.695Z,12.40
2022-11-28T06:49:06.362Z,12.00
2022-11-28T06:51:37.652Z,11.90
2022-11-28T06:54:09.196Z,12.00
2022-11-28T06:56:41.810Z,12.00
2022-11-28T06:59:13.151Z,11.90
2022-11-28T07:01:47.155Z,11.80
2022-11-28T07:04:18.106Z,11.90
2022-11-28T07:06:49.006Z,11.70
2022-11-28T07:09:19.894Z,11.80
2022-11-28T07:11:50.865Z,12.00
2022-11-28T07:14:21.997Z,11.90
2022-11-28T07:16:53.035Z,12.10
2022-11-28T07:19:23.907Z,12.20
2022-11-28T07:21:54.761Z,12.00
2022-11-28T07:24:25.794Z,12.00
2022-11-28T07:26:56.865Z,12.20
2022-11-28T07:29:35.706Z,12.20
2022-11-28T07:32:08.038Z,12.40
2022-11-28T07:34:39.189Z,12.20
2022-11-28T07:37:10.202Z,12.30
2022-11-28T07:39:42.597Z,11.90
2022-11-28T07:42:13.881Z,11.70
2022-11-28T07:44:48.462Z,11.80
2022-11-28T07:47:19.334Z,11.90
2022-11-28T07:49:50.244Z,11.90
2022-11-28T07:52:21.297Z,11.90
2022-11-28T07:54:52.220Z,11.70
2022-11-28T07:57:23.159Z,11.70
2022-11-28T07:59:54.092Z,11.90
2022-11-28T08:02:27.029Z,11.90
2022-11-28T08:04:58.451Z,12.10
2022-11-28T08:07:29.423Z,12.10
2022-11-28T08:10:00.364Z,12.20
2022-11-28T08:12:31.501Z,12.20
2022-11-28T08:15:02.498Z,12.80
2022-11-28T08:17:35.485Z,12.50
2022-11-28T08:20:07.735Z,12.40
2022-11-28T08:22:38.757Z,12.40
2022-11-28T08:25:09.945Z,12.50
2022-11-28T08:27:40.846Z,12.30
2022-11-28T08:30:12.170Z,12.30
2022-11-28T08:32:43.130Z,12.40
2022-11-28T08:35:14.113Z,12.40
2022-11-28T08:37:45.033Z,12.70
2022-11-28T08:40:16.092Z,12.60
2022-11-28T08:42:46.974Z,13.00
2022-11-28T08:45:17.889Z,12.70
2022-11-28T08:47:48.765Z,12.70
2022-11-28T08:50:19.631Z,12.60
2022-11-28T08:52:50.493Z,12.70
2022-11-28T08:55:25.169Z,12.60
2022-11-28T08:58:02.795Z,13.10
2022-11-28T09:00:33.735Z,13.10
2022-11-28T09:03:05.165Z,12.80
2022-11-28T09:05:36.096Z,13.40
2022-11-28T09:08:10.385Z,13.40
2022-11-28T09:10:44.245Z,13.20
2022-11-28T09:13:15.679Z,13.10
2022-11-28T09:15:50.049Z,13.00
2022-11-28T09:18:23.513Z,13.00
2022-11-28T09:21:15.114Z,13.10
2022-11-28T09:23:49.058Z,13.10
2022-11-28T09:26:24.224Z,12.80
2022-11-28T09:28:55.344Z,12.90
2022-11-28T09:31:26.569Z,12.80
2022-11-28T09:33:57.503Z,13.30
2022-11-28T09:36:29.075Z,13.50
2022-11-28T09:39:01.073Z,13.60
2022-11-28T09:42:22.301Z,13.40
2022-11-28T09:45:06.850Z,12.90
2022-11-28T09:47:41.019Z,12.90
2022-11-28T09:50:23.198Z,13.20
2022-11-28T09:53:24.663Z,13.00
2022-11-28T09:56:22.802Z,13.30
2022-11-28T09:59:03.559Z,13.20
2022-11-28T10:02:13.750Z,13.30
2022-11-28T10:05:07.437Z,13.10
2022-11-28T10:08:01.575Z,13.20
2022-11-28T10:11:01.772Z,13.60
2022-11-28T10:14:08.119Z,13.60
2022-11-28T10:17:11.952Z,13.80
2022-11-28T10:19:59.653Z,13.20
2022-11-28T10:22:56.473Z,13.40
2022-11-28T10:25:41.112Z,13.50
2022-11-28T10:28:21.433Z,13.40
2022-11-28T10:31:12.303Z,13.70
2022-11-28T10:33:59.642Z,13.20
2022-11-28T10:37:19.987Z,13.60
2022-11-28T10:39:51.358Z,13.40
2022-11-28T10:42:54.086Z,13.40
2022-11-28T10:45:48.628Z,13.60
2022-11-28T10:48:39.991Z,13.70
2022-11-28T10:51:44.202Z,13.70
2022-11-28T10:55:08.520Z,14.10
2022-11-28T10:57:55.422Z,13.90
2022-11-28T11:00:26.370Z,13.90
2022-11-28T11:03:02.379Z,13.80
2022-11-28T11:05:37.018Z,14.10
2022-11-28T11:08:21.895Z,14.00
2022-11-28T11:11:27.872Z,14.00
2022-11-28T11:14:08.364Z,14.20
2022-11-28T11:16:56.927Z,13.90
2022-11-28T11:19:34.773Z,14.00
2022-11-28T11:22:21.878Z,14.00
2022-11-28T11:25:17.039Z,14.10
2022-11-28T11:28:03.233Z,14.20
2022-11-28T11:30:42.496Z,14.20
2022-11-28T11:33:17.762Z,13.90
2022-11-28T11:35:49.688Z,13.70
2022-11-28T11:38:23.605Z,13.80
2022-11-28T11:40:54.545Z,14.00
2022-11-28T11:43:35.859Z,13.90
2022-11-28T11:46:17.345Z,13.50
2022-11-28T11:48:53.540Z,13.80
2022-11-28T11:51:27.355Z,14.10
2022-11-28T11:54:13.275Z,14.20
2022-11-28T11:56:51.275Z,14.00
2022-11-28T11:59:39.313Z,14.00
2022-11-28T12:02:36.909Z,14.30
2022-11-28T12:05:14.280Z,14.40
2022-11-28T12:08:16.904Z,14.30
2022-11-28T12:10:57.071Z,14.40
2022-11-28T12:13:27.948Z,14.10
2022-11-28T12:16:45.613Z,13.80
2022-11-28T12:20:18.644Z,13.70
2022-11-28T12:22:58.359Z,13.70
2022-11-28T12:25:57.796Z,13.80
2022-11-28T12:28:43.674Z,14.00
2022-11-28T12:31:55.980Z,14.00
2022-11-28T12:34:51.377Z,14.00
2022-11-28T12:38:12.541Z,14.00
2022-11-28T12:41:22.108Z,14.10
2022-11-28T12:44:16.631Z,14.10
2022-11-28T12:47:06.072Z,14.20
2022-11-28T12:50:03.192Z,14.10
2022-11-28T12:52:52.835Z,14.10
2022-11-28T12:55:45.961Z,14.10
2022-11-28T12:58:26.573Z,14.20
2022-11-28T13:01:18.434Z,14.50
2022-11-28T13:04:33.480Z,14.50
2022-11-28T13:07:26.210Z,14.40
2022-11-28T13:10:03.061Z,14.50
2022-11-28T13:13:02.958Z,14.60
2022-11-28T13:16:04.659Z,14.50
2022-11-28T13:18:44.893Z,14.80
2022-11-28T13:21:47.944Z,14.90
2022-11-28T13:24:56.391Z,14.70
2022-11-28T13:27:54.763Z,14.50
2022-11-28T13:30:39.592Z,14.50
2022-11-28T13:33:19.331Z,14.40
2022-11-28T13:35:50.612Z,14.60
2022-11-28T13:39:11.350Z,14.60
2022-11-28T13:45:09.689Z,14.80
2022-11-28T13:47:40.534Z,14.80
2022-11-28T13:50:36.444Z,14.70
2022-11-28T13:53:07.259Z,14.80
2022-11-28T13:56:07.337Z,14.70
2022-11-28T13:59:16.351Z,14.80
2022-11-28T14:01:57.815Z,14.60
2022-11-28T14:04:30.702Z,14.70
2022-11-28T14:07:07.468Z,14.70
2022-11-28T14:09:52.321Z,14.80
2022-11-28T14:12:46.160Z,14.80
2022-11-28T14:15:28.961Z,14.60
2022-11-28T14:18:56.878Z,14.70
2022-11-28T14:21:42.540Z,14.70
2022-11-28T14:25:08.015Z,14.70
2022-11-28T14:27:48.704Z,14.70
2022-11-28T14:30:41.803Z,14.70
2022-11-28T14:33:35.844Z,14.70
2022-11-28T14:36:33.805Z,14.70
2022-11-28T14:39:33.040Z,14.90
2022-11-28T14:42:06.895Z,14.80
2022-11-28T14:45:03.397Z,14.80
2022-11-28T14:47:43.105Z,14.90
2022-11-28T14:50:13.905Z,14.90
2022-11-28T14:52:48.643Z,14.80
2022-11-28T14:55:21.996Z,14.70
2022-11-28T14:57:57.329Z,14.70
2022-11-28T15:00:47.567Z,14.80
2022-11-28T15:03:43.129Z,14.70
2022-11-28T15:06:17.986Z,14.60
2022-11-28T15:09:18.058Z,14.50
2022-11-28T15:12:11.545Z,14.60
2022-11-28T15:14:45.613Z,14.50
2022-11-28T15:17:23.143Z,14.40
2022-11-28T15:19:54.894Z,14.50
2022-11-28T15:22:35.811Z,14.30
2022-11-28T15:25:39.732Z,14.20
2022-11-28T15:28:18.604Z,14.60
2022-11-28T15:30:52.760Z,14.50
2022-11-28T15:33:26.198Z,14.10
2022-11-28T15:36:02.358Z,14.20
2022-11-28T15:38:33.335Z,14.10
2022-11-28T15:41:04.517Z,14.30
2022-11-28T15:43:39.531Z,14.20
2022-11-28T15:46:20.694Z,14.40
2022-11-28T15:48:53.078Z,14.20
2022-11-28T15:51:32.634Z,14.20
2022-11-28T15:54:24.919Z,14.30
2022-11-28T15:57:00.465Z,14.20
2022-11-28T15:59:31.742Z,14.10
2022-11-28T16:02:16.074Z,14.00
2022-11-28T16:04:47.269Z,14.50
2022-11-28T16:07:18.298Z,14.20
2022-11-28T16:10:04.687Z,14.10
2022-11-28T16:12:35.719Z,14.00
2022-11-28T16:15:07.030Z,14.10
2022-11-28T16:17:39.860Z,14.00
2022-11-28T16:20:34.093Z,14.10
2022-11-28T16:23:19.855Z,14.00
2022-11-28T16:26:22.354Z,14.00
2022-11-28T16:29:09.894Z,14.00
2022-11-28T16:31:43.108Z,14.00
2022-11-28T16:34:15.126Z,14.00
2022-11-28T16:36:48.069Z,14.00
2022-11-28T16:39:19.203Z,14.00
2022-11-28T16:42:14.095Z,14.00
2022-11-28T16:44:45.091Z,14.10
2022-11-28T16:47:31.138Z,14.00
2022-11-28T16:50:24.695Z,14.00
2022-11-28T16:52:59.345Z,14.00
2022-11-28T16:55:30.167Z,14.00
2022-11-28T16:58:21.108Z,14.00
2022-11-28T17:01:02.684Z,14.00
2022-11-28T17:03:47.124Z,14.00
2022-11-28T17:06:28.690Z,14.00
2022-11-28T17:09:18.350Z,13.90
2022-11-28T17:12:12.135Z,14.00
2022-11-28T17:14:44.373Z,13.90
2022-11-28T17:17:16.755Z,13.90
2022-11-28T17:19:47.599Z,14.00
2022-11-28T17:22:23.304Z,14.00
2022-11-28T17:25:01.514Z,14.00
2022-11-28T17:27:32.556Z,14.00
2022-11-28T17:30:03.861Z,14.10
2022-11-28T17:32:34.776Z,13.90
2022-11-28T17:35:17.800Z,13.90
2022-11-28T17:37:48.975Z,13.80
2022-11-28T17:40:36.610Z,13.90
2022-11-28T17:43:18.192Z,13.90
2022-11-28T17:45:50.734Z,13.90
2022-11-28T17:48:21.702Z,13.80
2022-11-28T17:50:55.964Z,13.80
2022-11-28T17:53:26.900Z,13.90
2022-11-28T17:55:59.852Z,13.80
2022-11-28T17:58:30.848Z,13.80
2022-11-28T18:01:01.879Z,13.80
2022-11-28T18:03:32.883Z,13.70
2022-11-28T18:06:05.327Z,13.80
2022-11-28T18:08:36.274Z,13.80
2022-11-28T18:11:10.078Z,13.80
2022-11-28T18:13:42.548Z,13.80
2022-11-28T18:16:17.281Z,13.70
2022-11-28T18:18:48.926Z,13.70
2022-11-28T18:21:20.353Z,13.80
2022-11-28T18:23:51.325Z,13.80
2022-11-28T18:26:25.026Z,13.90
2022-11-28T18:28:56.351Z,13.90
2022-11-28T18:31:29.886Z,13.90
2022-11-28T18:34:04.470Z,13.80
2022-11-28T18:36:38.031Z,13.80
2022-11-28T18:39:13.059Z,14.50
2022-11-28T18:41:44.134Z,14.70
2022-11-28T18:44:15.118Z,14.30
2022-11-28T18:46:46.067Z,14.00
2022-11-28T18:49:19.071Z,13.90
2022-11-28T18:51:50.041Z,13.70
2022-11-28T18:54:21.722Z,14.90
2022-11-28T18:56:52.776Z,15.70
2022-11-28T18:59:23.904Z,15.90
2022-11-28T19:01:54.832Z,15.40
2022-11-28T19:04:25.844Z,14.50
2022-11-28T19:06:56.792Z,14.40
2022-11-28T19:09:27.660Z,14.20
2022-11-28T19:11:58.562Z,14.00
2022-11-28T19:14:29.616Z,14.30
2022-11-28T19:17:02.057Z,14.40
2022-11-28T19:19:33.168Z,14.20
2022-11-28T19:22:04.238Z,14.20
2022-11-28T19:24:37.815Z,14.20
2022-11-28T19:27:14.012Z,14.00
2022-11-28T19:29:45.813Z,13.90
2022-11-28T19:32:18.075Z,13.80
2022-11-28T19:34:52.276Z,13.80
2022-11-28T19:37:23.285Z,13.80
2022-11-28T19:39:55.665Z,13.80
2022-11-28T19:42:29.702Z,13.80
2022-11-28T19:45:00.611Z,13.90
2022-11-28T19:47:31.493Z,13.90
2022-11-28T19:50:02.634Z,13.90
2022-11-28T19:52:33.553Z,13.90
2022-11-28T19:55:04.826Z,14.00
2022-11-28T19:57:37.211Z,13.80
2022-11-28T20:00:09.075Z,13.80
2022-11-28T20:02:40.150Z,13.70
2022-11-28T20:05:11.162Z,13.70
2022-11-28T20:07:42.108Z,13.60
2022-11-28T20:10:13.242Z,13.60
2022-11-28T20:12:44.120Z,13.70
2022-11-28T20:15:18.355Z,13.70
2022-11-28T20:17:49.878Z,13.80
2022-11-28T20:20:20.771Z,13.80
2022-11-28T20:22:51.725Z,13.80
2022-11-28T20:25:22.657Z,13.80
2022-11-28T20:27:54.276Z,13.70
2022-11-28T20:30:25.202Z,13.70
2022-11-28T20:32:56.090Z,13.80
2022-11-28T20:35:27.562Z,13.70
2022-11-28T20:37:58.433Z,15.50
2022-11-28T20:40:29.289Z,16.60
2022-11-28T20:43:02.490Z,16.30
2022-11-28T20:45:33.399Z,15.40
2022-11-28T20:48:04.571Z,14.60
2022-11-28T20:50:35.440Z,14.40
2022-11-28T20:53:06.325Z,14.10
2022-11-28T20:55:37.220Z,14.00
2022-11-28T20:58:08.114Z,14.10
2022-11-28T21:00:38.968Z,14.00
2022-11-28T21:03:10.341Z,13.70
2022-11-28T21:05:41.312Z,13.70
2022-11-28T21:08:12.241Z,13.70
2022-11-28T21:10:43.756Z,14.90
2022-11-28T21:13:14.701Z,16.00
2022-11-28T21:15:46.112Z,16.70
2022-11-28T21:18:17.257Z,15.30
2022-11-28T21:20:48.380Z,14.80
2022-11-28T21:23:19.263Z,14.60
2022-11-28T21:25:50.137Z,14.30
2022-11-28T21:28:21.029Z,14.10
2022-11-28T21:30:51.857Z,14.10
2022-11-28T21:33:22.766Z,14.00
2022-11-28T21:35:53.670Z,14.10
2022-11-28T21:38:24.557Z,14.00
2022-11-28T21:40:55.586Z,13.90
2022-11-28T21:43:29.252Z,14.00
2022-11-28T21:46:04.904Z,14.30
2022-11-28T21:48:37.094Z,14.10
2022-11-28T21:51:15.405Z,13.80
2022-11-28T21:53:47.118Z,13.80
2022-11-28T21:56:18.668Z,13.90
2022-11-28T21:58:49.762Z,13.70
2022-11-28T22:01:21.363Z,13.80
2022-11-28T22:03:53.565Z,13.80
2022-11-28T22:06:26.996Z,13.80
2022-11-28T22:08:57.914Z,13.70
2022-11-28T22:11:28.887Z,13.90
2022-11-28T22:13:59.943Z,13.60
2022-11-28T22:16:30.897Z,13.80
2022-11-28T22:19:01.997Z,13.90
2022-11-28T22:24:24.191Z,13.80
2022-11-28T22:26:55.271Z,13.70
2022-11-28T22:29:26.178Z,13.70
2022-11-28T22:31:57.129Z,13.70
2022-11-28T22:34:28.062Z,13.60
2022-11-28T22:36:58.977Z,13.60
2022-11-28T22:39:30.030Z,13.50
2022-11-28T22:42:01.220Z,13.60
2022-11-28T22:44:32.166Z,13.50
2022-11-28T22:47:03.064Z,13.70
2022-11-28T22:49:33.905Z,13.70
2022-11-28T22:52:05.069Z,13.70
2022-11-28T22:54:35.910Z,13.80
2022-11-28T22:57:06.805Z,13.90
2022-11-28T22:59:38.632Z,13.80
2022-11-28T23:02:09.888Z,13.70
2022-11-28T23:04:41.054Z,13.60
2022-11-28T23:07:12.057Z,13.60
2022-11-28T23:09:42.925Z,13.70
2022-11-28T23:12:13.776Z,13.70
2022-11-28T23:14:45.193Z,13.60
2022-11-28T23:17:16.230Z,13.80
2022-11-28T23:19:47.407Z,13.70
2022-11-28T23:22:18.272Z,13.80
2022-11-28T23:24:49.109Z,13.90
2022-11-28T23:27:20.032Z,13.90
2022-11-28T23:29:50.898Z,13.90
2022-11-28T23:32:21.810Z,13.90
2022-11-28T23:34:52.680Z,13.80
2022-11-28T23:37:23.543Z,13.80
2022-11-28T23:39:54.405Z,13.70
2022-11-28T23:42:25.260Z,13.90
2022-11-28T23:44:56.099Z,13.90
2022-11-28T23:47:26.976Z,13.90
2022-11-28T23:49:57.840Z,13.90
2022-11-28T23:52:28.693Z,14.00
2022-11-28T23:54:59.573Z,14.00
2022-11-28T23:57:30.517Z,13.90
